Walker Valley, NY (12588)

7:47 AM EST en Enero 16, 2017 (GMT -0500)
MonkWeather | | Change Station

Alt 423 ft 41.63 °N, 74.30 °W | Updated 4 seconds ago

Despejado
Despejado
12.9 ° F
Sensación térmica 13 ° F
N
0.0
Viento Variable Viento desde SO
Gusts 0.0 mph

Hoy
Alta -- | Baja -- ° F
--% Posibilidad de precipitaciones
Ayer
Alta -- | Baja -- ° F
Precip. -- pul
Presión 30.44 pul
Visibilidad 10.0 Millas
Nubes Despejado
Vientos helados 13 ° F
Punto de rocío 10 ° F
Humedad 89%
Precipitaciones 0.00 pul
Espesor de la nieve No disponible.
7:21 AM 4:53 PM
Gibosa menguante, 81% visible
METAR KMGJ 161154Z AUTO 21004KT 10SM CLR M09/M11 A3042 RMK AO2 SLP308 I1000 I6000 T10941111 11067 21100 53001 TSNO
Presión 30.44 pul
Visibilidad 10.0 Millas
Nubes Despejado
Vientos helados 13 ° F
Punto de rocío 10 ° F
Humedad 89%
Precipitaciones 0.00 pul
Espesor de la nieve No disponible.
7:21 AM 4:53 PM
Gibosa menguante, 81% visible
METAR KMGJ 161154Z AUTO 21004KT 10SM CLR M09/M11 A3042 RMK AO2 SLP308 I1000 I6000 T10941111 11067 21100 53001 TSNO

Get Your Daily Forecast Email!

Thanks for signing up!

Be on the lookout for a verification email in your inbox.

You'll start receiving the daily forecast at 8 AM.

×

10-Day Weather Forecast

Almanac

Astronomía

Jan. 16, 2017 Salida Puesta
Hora real
Crepúsculo civil
Crepúsculo náutico
Crepúsculo astronómico
Luna
Horas de luz
Horas de luz
Tomorrow will be .
, % of the Moon is Illuminated

Extremos de hoy

Máximos del estado Bajos del estado

Community

WunderPhotos

Upload Photos

1,962,540 ¡fotos cargadas!

WunderBlog® & News

Nearby

Calidad del aire

  Calidad del aire Índice AQ Contaminante
Not available.

Grosos de nieve

Estación Profundido Altura

Actividad de terremotos

Ciudad Distance Mag. Tiempo y dato
Magnitud mínima muestra es 2,5.

Temperaturas de aguas costeras

Lugar Temperatura

Stations

Estaciones meteorológicas cercanas

Ubicación de la estación Temp. Vientos helados Punto de rocío Humedad Viento Precip. Alt Actualizado Tipo
                   

Watches & Warnings

There are currently no watches in effect.